<?xml version="1.0" encoding="UTF-8" standalone="no" ?>
<gpx xmlns="http://www.topografix.com/GPX/1/1" xmlns:xsi="http://www.w3.org/2001/XMLSchema-instance" xsi:schemaLocation="http://www.topografix.com/GPX/1/1 http://www.topografix.com/GPX/1/1/gpx.xsd" version="1.1" creator="VisuGPX - https://www.visugpx.com">
  <metadata>
    <name>Sainte Victoire </name>
    <desc><![CDATA[grp_trc:[nouvelles]]]></desc>
  </metadata>
  <trk>
    <name><![CDATA[19 févr. 2019 à 08:31:21]]></name>
    <cmt><![CDATA[19 févr. 2019 à 08:31:21]]></cmt>
    <trkseg>
      <trkpt lat="45.78842" lon="2.99672">
        <ele>519</ele>
        <time>2019-02-19T07:31:21Z</time>
      </trkpt>
      <trkpt lat="45.78856" lon="2.99674">
        <ele>520</ele>
        <time>2019-02-19T07:32:10Z</time>
      </trkpt>
      <trkpt lat="45.78852" lon="2.99684">
        <ele>520</ele>
        <time>2019-02-19T07:32:22Z</time>
      </trkpt>
      <trkpt lat="45.78841" lon="2.99675">
        <ele>520</ele>
        <time>2019-02-19T07:32:58Z</time>
      </trkpt>
      <trkpt lat="45.7885" lon="2.99675">
        <ele>520</ele>
        <time>2019-02-19T07:33:14Z</time>
      </trkpt>
      <trkpt lat="45.78855" lon="2.99677">
        <ele>522</ele>
        <time>2019-02-19T07:35:53Z</time>
      </trkpt>
      <trkpt lat="45.78858" lon="2.99677">
        <ele>523</ele>
        <time>2019-02-19T07:39:01Z</time>
      </trkpt>
      <trkpt lat="45.78859" lon="2.99667">
        <ele>524</ele>
        <time>2019-02-19T07:40:01Z</time>
      </trkpt>
      <trkpt lat="45.7885" lon="2.99635">
        <ele>526</ele>
        <time>2019-02-19T07:43:59Z</time>
      </trkpt>
      <trkpt lat="45.78842" lon="2.99618">
        <ele>526</ele>
        <time>2019-02-19T07:44:09Z</time>
      </trkpt>
      <trkpt lat="45.78842" lon="2.9958">
        <ele>527</ele>
        <time>2019-02-19T07:44:32Z</time>
      </trkpt>
      <trkpt lat="45.78847" lon="2.99547">
        <ele>529</ele>
        <time>2019-02-19T07:44:56Z</time>
      </trkpt>
      <trkpt lat="45.78847" lon="2.99536">
        <ele>530</ele>
        <time>2019-02-19T07:45:05Z</time>
      </trkpt>
      <trkpt lat="45.7885" lon="2.99498">
        <ele>531</ele>
        <time>2019-02-19T07:45:31Z</time>
      </trkpt>
      <trkpt lat="45.78848" lon="2.99478">
        <ele>533</ele>
        <time>2019-02-19T07:45:45Z</time>
      </trkpt>
      <trkpt lat="45.78851" lon="2.99452">
        <ele>534</ele>
        <time>2019-02-19T07:45:59Z</time>
      </trkpt>
      <trkpt lat="45.78849" lon="2.99444">
        <ele>534</ele>
        <time>2019-02-19T07:46:04Z</time>
      </trkpt>
      <trkpt lat="45.78851" lon="2.99423">
        <ele>535</ele>
        <time>2019-02-19T07:46:18Z</time>
      </trkpt>
      <trkpt lat="45.78848" lon="2.99408">
        <ele>535</ele>
        <time>2019-02-19T07:46:28Z</time>
      </trkpt>
      <trkpt lat="45.7885" lon="2.99388">
        <ele>536</ele>
        <time>2019-02-19T07:46:40Z</time>
      </trkpt>
      <trkpt lat="45.78846" lon="2.99373">
        <ele>537</ele>
        <time>2019-02-19T07:46:49Z</time>
      </trkpt>
      <trkpt lat="45.78847" lon="2.99356">
        <ele>538</ele>
        <time>2019-02-19T07:47:00Z</time>
      </trkpt>
      <trkpt lat="45.78844" lon="2.99323">
        <ele>539</ele>
        <time>2019-02-19T07:47:22Z</time>
      </trkpt>
      <trkpt lat="45.78847" lon="2.99316">
        <ele>539</ele>
        <time>2019-02-19T07:47:27Z</time>
      </trkpt>
      <trkpt lat="45.78851" lon="2.99293">
        <ele>541</ele>
        <time>2019-02-19T07:47:44Z</time>
      </trkpt>
      <trkpt lat="45.78851" lon="2.99279">
        <ele>541</ele>
        <time>2019-02-19T07:47:53Z</time>
      </trkpt>
      <trkpt lat="45.78853" lon="2.99269">
        <ele>542</ele>
        <time>2019-02-19T07:47:58Z</time>
      </trkpt>
      <trkpt lat="45.78853" lon="2.99244">
        <ele>543</ele>
        <time>2019-02-19T07:48:06Z</time>
      </trkpt>
      <trkpt lat="45.78859" lon="2.99218">
        <ele>544</ele>
        <time>2019-02-19T07:48:24Z</time>
      </trkpt>
      <trkpt lat="45.7888" lon="2.99164">
        <ele>547</ele>
        <time>2019-02-19T07:48:59Z</time>
      </trkpt>
      <trkpt lat="45.78888" lon="2.99146">
        <ele>547</ele>
        <time>2019-02-19T07:49:12Z</time>
      </trkpt>
      <trkpt lat="45.78898" lon="2.99082">
        <ele>551</ele>
        <time>2019-02-19T07:49:51Z</time>
      </trkpt>
      <trkpt lat="45.78886" lon="2.9907">
        <ele>551</ele>
        <time>2019-02-19T07:50:00Z</time>
      </trkpt>
      <trkpt lat="45.78842" lon="2.99051">
        <ele>553</ele>
        <time>2019-02-19T07:50:34Z</time>
      </trkpt>
      <trkpt lat="45.78833" lon="2.99034">
        <ele>554</ele>
        <time>2019-02-19T07:50:48Z</time>
      </trkpt>
      <trkpt lat="45.78826" lon="2.99017">
        <ele>555</ele>
        <time>2019-02-19T07:51:20Z</time>
      </trkpt>
      <trkpt lat="45.78817" lon="2.99001">
        <ele>556</ele>
        <time>2019-02-19T07:51:46Z</time>
      </trkpt>
      <trkpt lat="45.78809" lon="2.98981">
        <ele>557</ele>
        <time>2019-02-19T07:52:00Z</time>
      </trkpt>
      <trkpt lat="45.78804" lon="2.98962">
        <ele>558</ele>
        <time>2019-02-19T07:52:13Z</time>
      </trkpt>
      <trkpt lat="45.78802" lon="2.98941">
        <ele>559</ele>
        <time>2019-02-19T07:52:25Z</time>
      </trkpt>
      <trkpt lat="45.78792" lon="2.989">
        <ele>559</ele>
        <time>2019-02-19T07:52:42Z</time>
      </trkpt>
      <trkpt lat="45.78789" lon="2.98837">
        <ele>559</ele>
        <time>2019-02-19T07:53:10Z</time>
      </trkpt>
      <trkpt lat="45.78786" lon="2.98817">
        <ele>560</ele>
        <time>2019-02-19T07:53:23Z</time>
      </trkpt>
      <trkpt lat="45.788" lon="2.98771">
        <ele>561</ele>
        <time>2019-02-19T07:53:49Z</time>
      </trkpt>
      <trkpt lat="45.78804" lon="2.98708">
        <ele>562</ele>
        <time>2019-02-19T07:54:22Z</time>
      </trkpt>
      <trkpt lat="45.78802" lon="2.98681">
        <ele>563</ele>
        <time>2019-02-19T07:54:39Z</time>
      </trkpt>
      <trkpt lat="45.78809" lon="2.98645">
        <ele>563</ele>
        <time>2019-02-19T07:55:02Z</time>
      </trkpt>
      <trkpt lat="45.78816" lon="2.98571">
        <ele>561</ele>
        <time>2019-02-19T07:55:41Z</time>
      </trkpt>
      <trkpt lat="45.7883" lon="2.98535">
        <ele>562</ele>
        <time>2019-02-19T07:56:08Z</time>
      </trkpt>
      <trkpt lat="45.78852" lon="2.98506">
        <ele>562</ele>
        <time>2019-02-19T07:56:29Z</time>
      </trkpt>
      <trkpt lat="45.78862" lon="2.98488">
        <ele>563</ele>
        <time>2019-02-19T07:56:40Z</time>
      </trkpt>
      <trkpt lat="45.7887" lon="2.98471">
        <ele>563</ele>
        <time>2019-02-19T07:56:50Z</time>
      </trkpt>
      <trkpt lat="45.78867" lon="2.98443">
        <ele>564</ele>
        <time>2019-02-19T07:57:06Z</time>
      </trkpt>
      <trkpt lat="45.78868" lon="2.98434">
        <ele>563</ele>
        <time>2019-02-19T07:57:20Z</time>
      </trkpt>
      <trkpt lat="45.78871" lon="2.98419">
        <ele>563</ele>
        <time>2019-02-19T07:57:48Z</time>
      </trkpt>
      <trkpt lat="45.78882" lon="2.98397">
        <ele>564</ele>
        <time>2019-02-19T07:57:58Z</time>
      </trkpt>
      <trkpt lat="45.78887" lon="2.98391">
        <ele>564</ele>
        <time>2019-02-19T07:58:02Z</time>
      </trkpt>
      <trkpt lat="45.789" lon="2.98375">
        <ele>565</ele>
        <time>2019-02-19T07:58:16Z</time>
      </trkpt>
      <trkpt lat="45.78909" lon="2.98353">
        <ele>565</ele>
        <time>2019-02-19T07:58:29Z</time>
      </trkpt>
      <trkpt lat="45.78911" lon="2.98345">
        <ele>565</ele>
        <time>2019-02-19T07:58:34Z</time>
      </trkpt>
      <trkpt lat="45.78915" lon="2.98338">
        <ele>566</ele>
        <time>2019-02-19T07:58:39Z</time>
      </trkpt>
      <trkpt lat="45.7892" lon="2.9832">
        <ele>566</ele>
        <time>2019-02-19T07:58:49Z</time>
      </trkpt>
      <trkpt lat="45.78926" lon="2.98306">
        <ele>567</ele>
        <time>2019-02-19T07:58:58Z</time>
      </trkpt>
      <trkpt lat="45.78939" lon="2.98274">
        <ele>567</ele>
        <time>2019-02-19T07:59:19Z</time>
      </trkpt>
      <trkpt lat="45.78942" lon="2.98268">
        <ele>568</ele>
        <time>2019-02-19T07:59:25Z</time>
      </trkpt>
      <trkpt lat="45.78945" lon="2.98251">
        <ele>569</ele>
        <time>2019-02-19T07:59:40Z</time>
      </trkpt>
      <trkpt lat="45.7895" lon="2.98244">
        <ele>568</ele>
        <time>2019-02-19T07:59:44Z</time>
      </trkpt>
      <trkpt lat="45.78952" lon="2.98234">
        <ele>569</ele>
        <time>2019-02-19T07:59:50Z</time>
      </trkpt>
      <trkpt lat="45.78954" lon="2.98226">
        <ele>569</ele>
        <time>2019-02-19T07:59:55Z</time>
      </trkpt>
      <trkpt lat="45.78957" lon="2.98217">
        <ele>569</ele>
        <time>2019-02-19T07:59:59Z</time>
      </trkpt>
      <trkpt lat="45.7896" lon="2.9821">
        <ele>569</ele>
        <time>2019-02-19T08:00:03Z</time>
      </trkpt>
      <trkpt lat="45.78963" lon="2.98194">
        <ele>570</ele>
        <time>2019-02-19T08:00:13Z</time>
      </trkpt>
      <trkpt lat="45.78968" lon="2.98189">
        <ele>571</ele>
        <time>2019-02-19T08:00:21Z</time>
      </trkpt>
      <trkpt lat="45.78972" lon="2.98183">
        <ele>571</ele>
        <time>2019-02-19T08:00:25Z</time>
      </trkpt>
      <trkpt lat="45.78979" lon="2.98179">
        <ele>571</ele>
        <time>2019-02-19T08:00:32Z</time>
      </trkpt>
      <trkpt lat="45.78989" lon="2.98157">
        <ele>572</ele>
        <time>2019-02-19T08:00:46Z</time>
      </trkpt>
      <trkpt lat="45.78994" lon="2.98141">
        <ele>573</ele>
        <time>2019-02-19T08:00:56Z</time>
      </trkpt>
      <trkpt lat="45.78999" lon="2.98136">
        <ele>573</ele>
        <time>2019-02-19T08:01:01Z</time>
      </trkpt>
      <trkpt lat="45.79002" lon="2.98129">
        <ele>573</ele>
        <time>2019-02-19T08:01:06Z</time>
      </trkpt>
      <trkpt lat="45.79005" lon="2.98118">
        <ele>573</ele>
        <time>2019-02-19T08:01:12Z</time>
      </trkpt>
      <trkpt lat="45.79009" lon="2.98112">
        <ele>573</ele>
        <time>2019-02-19T08:01:16Z</time>
      </trkpt>
      <trkpt lat="45.79019" lon="2.9809">
        <ele>574</ele>
        <time>2019-02-19T08:01:35Z</time>
      </trkpt>
      <trkpt lat="45.79037" lon="2.9807">
        <ele>576</ele>
        <time>2019-02-19T08:01:55Z</time>
      </trkpt>
      <trkpt lat="45.79046" lon="2.98049">
        <ele>577</ele>
        <time>2019-02-19T08:02:09Z</time>
      </trkpt>
      <trkpt lat="45.79051" lon="2.98048">
        <ele>577</ele>
        <time>2019-02-19T08:02:15Z</time>
      </trkpt>
      <trkpt lat="45.79076" lon="2.98004">
        <ele>581</ele>
        <time>2019-02-19T08:02:49Z</time>
      </trkpt>
      <trkpt lat="45.79081" lon="2.98001">
        <ele>582</ele>
        <time>2019-02-19T08:02:55Z</time>
      </trkpt>
      <trkpt lat="45.79108" lon="2.97959">
        <ele>586</ele>
        <time>2019-02-19T08:03:30Z</time>
      </trkpt>
      <trkpt lat="45.7912" lon="2.97949">
        <ele>588</ele>
        <time>2019-02-19T08:03:42Z</time>
      </trkpt>
      <trkpt lat="45.79123" lon="2.9794">
        <ele>588</ele>
        <time>2019-02-19T08:03:47Z</time>
      </trkpt>
      <trkpt lat="45.79123" lon="2.97931">
        <ele>589</ele>
        <time>2019-02-19T08:03:51Z</time>
      </trkpt>
      <trkpt lat="45.79122" lon="2.97924">
        <ele>589</ele>
        <time>2019-02-19T08:03:56Z</time>
      </trkpt>
      <trkpt lat="45.79127" lon="2.97901">
        <ele>591</ele>
        <time>2019-02-19T08:04:12Z</time>
      </trkpt>
      <trkpt lat="45.7913" lon="2.97894">
        <ele>592</ele>
        <time>2019-02-19T08:04:17Z</time>
      </trkpt>
      <trkpt lat="45.79134" lon="2.97881">
        <ele>593</ele>
        <time>2019-02-19T08:04:28Z</time>
      </trkpt>
      <trkpt lat="45.7915" lon="2.97846">
        <ele>596</ele>
        <time>2019-02-19T08:04:59Z</time>
      </trkpt>
      <trkpt lat="45.79156" lon="2.97833">
        <ele>597</ele>
        <time>2019-02-19T08:05:09Z</time>
      </trkpt>
      <trkpt lat="45.7916" lon="2.97823">
        <ele>598</ele>
        <time>2019-02-19T08:05:17Z</time>
      </trkpt>
      <trkpt lat="45.79167" lon="2.97818">
        <ele>599</ele>
        <time>2019-02-19T08:05:27Z</time>
      </trkpt>
      <trkpt lat="45.79194" lon="2.97777">
        <ele>602</ele>
        <time>2019-02-19T08:05:59Z</time>
      </trkpt>
      <trkpt lat="45.79218" lon="2.97739">
        <ele>606</ele>
        <time>2019-02-19T08:06:31Z</time>
      </trkpt>
      <trkpt lat="45.79227" lon="2.97726">
        <ele>609</ele>
        <time>2019-02-19T08:07:18Z</time>
      </trkpt>
      <trkpt lat="45.79232" lon="2.9772">
        <ele>610</ele>
        <time>2019-02-19T08:07:24Z</time>
      </trkpt>
      <trkpt lat="45.79233" lon="2.97713">
        <ele>610</ele>
        <time>2019-02-19T08:07:29Z</time>
      </trkpt>
      <trkpt lat="45.79233" lon="2.97701">
        <ele>611</ele>
        <time>2019-02-19T08:07:37Z</time>
      </trkpt>
      <trkpt lat="45.79231" lon="2.97685">
        <ele>612</ele>
        <time>2019-02-19T08:07:48Z</time>
      </trkpt>
      <trkpt lat="45.79232" lon="2.97676">
        <ele>613</ele>
        <time>2019-02-19T08:07:54Z</time>
      </trkpt>
      <trkpt lat="45.79235" lon="2.97649">
        <ele>616</ele>
        <time>2019-02-19T08:08:13Z</time>
      </trkpt>
      <trkpt lat="45.79235" lon="2.97639">
        <ele>616</ele>
        <time>2019-02-19T08:08:17Z</time>
      </trkpt>
      <trkpt lat="45.79237" lon="2.97615">
        <ele>618</ele>
        <time>2019-02-19T08:08:30Z</time>
      </trkpt>
      <trkpt lat="45.79235" lon="2.97606">
        <ele>619</ele>
        <time>2019-02-19T08:08:37Z</time>
      </trkpt>
      <trkpt lat="45.79231" lon="2.976">
        <ele>619</ele>
        <time>2019-02-19T08:08:41Z</time>
      </trkpt>
      <trkpt lat="45.79231" lon="2.97587">
        <ele>620</ele>
        <time>2019-02-19T08:08:50Z</time>
      </trkpt>
      <trkpt lat="45.79228" lon="2.97572">
        <ele>621</ele>
        <time>2019-02-19T08:09:00Z</time>
      </trkpt>
      <trkpt lat="45.79231" lon="2.97563">
        <ele>622</ele>
        <time>2019-02-19T08:09:08Z</time>
      </trkpt>
      <trkpt lat="45.79231" lon="2.97555">
        <ele>623</ele>
        <time>2019-02-19T08:09:13Z</time>
      </trkpt>
      <trkpt lat="45.79227" lon="2.97521">
        <ele>626</ele>
        <time>2019-02-19T08:09:35Z</time>
      </trkpt>
      <trkpt lat="45.79231" lon="2.97505">
        <ele>627</ele>
        <time>2019-02-19T08:09:46Z</time>
      </trkpt>
      <trkpt lat="45.79231" lon="2.97497">
        <ele>628</ele>
        <time>2019-02-19T08:09:51Z</time>
      </trkpt>
      <trkpt lat="45.79235" lon="2.97491">
        <ele>629</ele>
        <time>2019-02-19T08:09:56Z</time>
      </trkpt>
      <trkpt lat="45.79231" lon="2.97483">
        <ele>630</ele>
        <time>2019-02-19T08:10:04Z</time>
      </trkpt>
      <trkpt lat="45.7923" lon="2.97445">
        <ele>635</ele>
        <time>2019-02-19T08:10:38Z</time>
      </trkpt>
      <trkpt lat="45.7923" lon="2.97422">
        <ele>637</ele>
        <time>2019-02-19T08:10:57Z</time>
      </trkpt>
      <trkpt lat="45.79238" lon="2.97402">
        <ele>640</ele>
        <time>2019-02-19T08:11:18Z</time>
      </trkpt>
      <trkpt lat="45.79238" lon="2.97389">
        <ele>642</ele>
        <time>2019-02-19T08:11:34Z</time>
      </trkpt>
      <trkpt lat="45.79241" lon="2.97378">
        <ele>645</ele>
        <time>2019-02-19T08:11:53Z</time>
      </trkpt>
      <trkpt lat="45.79242" lon="2.97364">
        <ele>647</ele>
        <time>2019-02-19T08:12:06Z</time>
      </trkpt>
      <trkpt lat="45.79246" lon="2.97345">
        <ele>651</ele>
        <time>2019-02-19T08:12:28Z</time>
      </trkpt>
      <trkpt lat="45.79246" lon="2.97332">
        <ele>652</ele>
        <time>2019-02-19T08:12:40Z</time>
      </trkpt>
      <trkpt lat="45.79248" lon="2.9732">
        <ele>654</ele>
        <time>2019-02-19T08:12:52Z</time>
      </trkpt>
      <trkpt lat="45.79254" lon="2.97302">
        <ele>658</ele>
        <time>2019-02-19T08:13:17Z</time>
      </trkpt>
      <trkpt lat="45.79256" lon="2.97278">
        <ele>661</ele>
        <time>2019-02-19T08:13:41Z</time>
      </trkpt>
      <trkpt lat="45.79257" lon="2.9727">
        <ele>663</ele>
        <time>2019-02-19T08:13:51Z</time>
      </trkpt>
      <trkpt lat="45.79256" lon="2.97247">
        <ele>666</ele>
        <time>2019-02-19T08:14:14Z</time>
      </trkpt>
      <trkpt lat="45.79252" lon="2.97238">
        <ele>667</ele>
        <time>2019-02-19T08:14:22Z</time>
      </trkpt>
      <trkpt lat="45.79256" lon="2.97224">
        <ele>669</ele>
        <time>2019-02-19T08:14:40Z</time>
      </trkpt>
      <trkpt lat="45.7926" lon="2.97214">
        <ele>671</ele>
        <time>2019-02-19T08:14:52Z</time>
      </trkpt>
      <trkpt lat="45.79262" lon="2.97202">
        <ele>672</ele>
        <time>2019-02-19T08:15:04Z</time>
      </trkpt>
      <trkpt lat="45.79265" lon="2.97191">
        <ele>675</ele>
        <time>2019-02-19T08:15:22Z</time>
      </trkpt>
      <trkpt lat="45.79266" lon="2.97179">
        <ele>676</ele>
        <time>2019-02-19T08:15:34Z</time>
      </trkpt>
      <trkpt lat="45.79266" lon="2.9717">
        <ele>677</ele>
        <time>2019-02-19T08:15:39Z</time>
      </trkpt>
      <trkpt lat="45.79261" lon="2.9716">
        <ele>679</ele>
        <time>2019-02-19T08:15:53Z</time>
      </trkpt>
      <trkpt lat="45.79261" lon="2.9715">
        <ele>680</ele>
        <time>2019-02-19T08:16:00Z</time>
      </trkpt>
      <trkpt lat="45.79262" lon="2.97142">
        <ele>682</ele>
        <time>2019-02-19T08:16:09Z</time>
      </trkpt>
      <trkpt lat="45.79265" lon="2.97134">
        <ele>682</ele>
        <time>2019-02-19T08:16:14Z</time>
      </trkpt>
      <trkpt lat="45.7927" lon="2.97126">
        <ele>684</ele>
        <time>2019-02-19T08:16:28Z</time>
      </trkpt>
      <trkpt lat="45.79274" lon="2.97119">
        <ele>686</ele>
        <time>2019-02-19T08:16:40Z</time>
      </trkpt>
      <trkpt lat="45.79278" lon="2.9711">
        <ele>688</ele>
        <time>2019-02-19T08:16:52Z</time>
      </trkpt>
      <trkpt lat="45.79283" lon="2.97093">
        <ele>691</ele>
        <time>2019-02-19T08:17:11Z</time>
      </trkpt>
      <trkpt lat="45.79286" lon="2.97086">
        <ele>692</ele>
        <time>2019-02-19T08:17:20Z</time>
      </trkpt>
      <trkpt lat="45.79286" lon="2.97074">
        <ele>694</ele>
        <time>2019-02-19T08:17:32Z</time>
      </trkpt>
      <trkpt lat="45.79291" lon="2.97053">
        <ele>698</ele>
        <time>2019-02-19T08:17:57Z</time>
      </trkpt>
      <trkpt lat="45.79293" lon="2.97041">
        <ele>700</ele>
        <time>2019-02-19T08:18:09Z</time>
      </trkpt>
      <trkpt lat="45.79295" lon="2.97033">
        <ele>701</ele>
        <time>2019-02-19T08:18:16Z</time>
      </trkpt>
      <trkpt lat="45.79298" lon="2.97026">
        <ele>703</ele>
        <time>2019-02-19T08:18:30Z</time>
      </trkpt>
      <trkpt lat="45.79293" lon="2.97013">
        <ele>704</ele>
        <time>2019-02-19T08:18:43Z</time>
      </trkpt>
      <trkpt lat="45.79295" lon="2.97">
        <ele>706</ele>
        <time>2019-02-19T08:18:57Z</time>
      </trkpt>
      <trkpt lat="45.79303" lon="2.96985">
        <ele>709</ele>
        <time>2019-02-19T08:19:12Z</time>
      </trkpt>
      <trkpt lat="45.7931" lon="2.96977">
        <ele>711</ele>
        <time>2019-02-19T08:19:26Z</time>
      </trkpt>
      <trkpt lat="45.79311" lon="2.96966">
        <ele>712</ele>
        <time>2019-02-19T08:19:37Z</time>
      </trkpt>
      <trkpt lat="45.79316" lon="2.96945">
        <ele>716</ele>
        <time>2019-02-19T08:20:03Z</time>
      </trkpt>
      <trkpt lat="45.79317" lon="2.96936">
        <ele>717</ele>
        <time>2019-02-19T08:20:11Z</time>
      </trkpt>
      <trkpt lat="45.79325" lon="2.96916">
        <ele>720</ele>
        <time>2019-02-19T08:20:35Z</time>
      </trkpt>
      <trkpt lat="45.79323" lon="2.96909">
        <ele>720</ele>
        <time>2019-02-19T08:20:40Z</time>
      </trkpt>
      <trkpt lat="45.79324" lon="2.96901">
        <ele>721</ele>
        <time>2019-02-19T08:20:46Z</time>
      </trkpt>
      <trkpt lat="45.7933" lon="2.96897">
        <ele>723</ele>
        <time>2019-02-19T08:20:58Z</time>
      </trkpt>
      <trkpt lat="45.79335" lon="2.96902">
        <ele>724</ele>
        <time>2019-02-19T08:21:26Z</time>
      </trkpt>
      <trkpt lat="45.79339" lon="2.96908">
        <ele>726</ele>
        <time>2019-02-19T08:21:57Z</time>
      </trkpt>
      <trkpt lat="45.79348" lon="2.96938">
        <ele>733</ele>
        <time>2019-02-19T08:22:38Z</time>
      </trkpt>
      <trkpt lat="45.79353" lon="2.96947">
        <ele>734</ele>
        <time>2019-02-19T08:22:49Z</time>
      </trkpt>
      <trkpt lat="45.79358" lon="2.96969">
        <ele>735</ele>
        <time>2019-02-19T08:23:06Z</time>
      </trkpt>
      <trkpt lat="45.7936" lon="2.96977">
        <ele>736</ele>
        <time>2019-02-19T08:23:13Z</time>
      </trkpt>
      <trkpt lat="45.79371" lon="2.96994">
        <ele>742</ele>
        <time>2019-02-19T08:23:39Z</time>
      </trkpt>
      <trkpt lat="45.79386" lon="2.97012">
        <ele>748</ele>
        <time>2019-02-19T08:24:10Z</time>
      </trkpt>
      <trkpt lat="45.79396" lon="2.97022">
        <ele>751</ele>
        <time>2019-02-19T08:24:28Z</time>
      </trkpt>
      <trkpt lat="45.79402" lon="2.9706">
        <ele>757</ele>
        <time>2019-02-19T08:25:07Z</time>
      </trkpt>
      <trkpt lat="45.79414" lon="2.97102">
        <ele>765</ele>
        <time>2019-02-19T08:25:52Z</time>
      </trkpt>
      <trkpt lat="45.7943" lon="2.97152">
        <ele>772</ele>
        <time>2019-02-19T08:26:40Z</time>
      </trkpt>
      <trkpt lat="45.79444" lon="2.97186">
        <ele>777</ele>
        <time>2019-02-19T08:27:12Z</time>
      </trkpt>
      <trkpt lat="45.79449" lon="2.97191">
        <ele>778</ele>
        <time>2019-02-19T08:27:17Z</time>
      </trkpt>
      <trkpt lat="45.79455" lon="2.97205">
        <ele>780</ele>
        <time>2019-02-19T08:27:30Z</time>
      </trkpt>
      <trkpt lat="45.79461" lon="2.97215">
        <ele>781</ele>
        <time>2019-02-19T08:27:41Z</time>
      </trkpt>
      <trkpt lat="45.79468" lon="2.97223">
        <ele>783</ele>
        <time>2019-02-19T08:27:53Z</time>
      </trkpt>
      <trkpt lat="45.79476" lon="2.97231">
        <ele>786</ele>
        <time>2019-02-19T08:28:08Z</time>
      </trkpt>
      <trkpt lat="45.79481" lon="2.97232">
        <ele>789</ele>
        <time>2019-02-19T08:29:22Z</time>
      </trkpt>
      <trkpt lat="45.79485" lon="2.9724">
        <ele>791</ele>
        <time>2019-02-19T08:29:36Z</time>
      </trkpt>
      <trkpt lat="45.79496" lon="2.97246">
        <ele>792</ele>
        <time>2019-02-19T08:29:50Z</time>
      </trkpt>
      <trkpt lat="45.79504" lon="2.97253">
        <ele>796</ele>
        <time>2019-02-19T08:30:05Z</time>
      </trkpt>
      <trkpt lat="45.7951" lon="2.97262">
        <ele>797</ele>
        <time>2019-02-19T08:30:17Z</time>
      </trkpt>
      <trkpt lat="45.79528" lon="2.97279">
        <ele>803</ele>
        <time>2019-02-19T08:30:49Z</time>
      </trkpt>
      <trkpt lat="45.79533" lon="2.97283">
        <ele>805</ele>
        <time>2019-02-19T08:30:58Z</time>
      </trkpt>
      <trkpt lat="45.79539" lon="2.97291">
        <ele>806</ele>
        <time>2019-02-19T08:31:11Z</time>
      </trkpt>
      <trkpt lat="45.79544" lon="2.97298">
        <ele>808</ele>
        <time>2019-02-19T08:31:21Z</time>
      </trkpt>
      <trkpt lat="45.79552" lon="2.97304">
        <ele>810</ele>
        <time>2019-02-19T08:31:33Z</time>
      </trkpt>
      <trkpt lat="45.79563" lon="2.97321">
        <ele>814</ele>
        <time>2019-02-19T08:31:54Z</time>
      </trkpt>
      <trkpt lat="45.79566" lon="2.97328">
        <ele>814</ele>
        <time>2019-02-19T08:31:58Z</time>
      </trkpt>
      <trkpt lat="45.79571" lon="2.97333">
        <ele>816</ele>
        <time>2019-02-19T08:32:07Z</time>
      </trkpt>
      <trkpt lat="45.79576" lon="2.9734">
        <ele>818</ele>
        <time>2019-02-19T08:32:19Z</time>
      </trkpt>
      <trkpt lat="45.79581" lon="2.97343">
        <ele>819</ele>
        <time>2019-02-19T08:32:24Z</time>
      </trkpt>
      <trkpt lat="45.79587" lon="2.97352">
        <ele>821</ele>
        <time>2019-02-19T08:32:36Z</time>
      </trkpt>
      <trkpt lat="45.79592" lon="2.97356">
        <ele>821</ele>
        <time>2019-02-19T08:32:42Z</time>
      </trkpt>
      <trkpt lat="45.79605" lon="2.97363">
        <ele>825</ele>
        <time>2019-02-19T08:33:02Z</time>
      </trkpt>
      <trkpt lat="45.79611" lon="2.97367">
        <ele>827</ele>
        <time>2019-02-19T08:33:10Z</time>
      </trkpt>
      <trkpt lat="45.79618" lon="2.97372">
        <ele>827</ele>
        <time>2019-02-19T08:33:22Z</time>
      </trkpt>
      <trkpt lat="45.79625" lon="2.97376">
        <ele>830</ele>
        <time>2019-02-19T08:33:34Z</time>
      </trkpt>
      <trkpt lat="45.79633" lon="2.97381">
        <ele>833</ele>
        <time>2019-02-19T08:33:46Z</time>
      </trkpt>
      <trkpt lat="45.7964" lon="2.97384">
        <ele>835</ele>
        <time>2019-02-19T08:33:58Z</time>
      </trkpt>
      <trkpt lat="45.79654" lon="2.97372">
        <ele>837</ele>
        <time>2019-02-19T08:34:17Z</time>
      </trkpt>
      <trkpt lat="45.79645" lon="2.97369">
        <ele>835</ele>
        <time>2019-02-19T08:34:58Z</time>
      </trkpt>
      <trkpt lat="45.79639" lon="2.97366">
        <ele>835</ele>
        <time>2019-02-19T08:35:03Z</time>
      </trkpt>
      <trkpt lat="45.79634" lon="2.9736">
        <ele>835</ele>
        <time>2019-02-19T08:35:07Z</time>
      </trkpt>
      <trkpt lat="45.7963" lon="2.97353">
        <ele>835</ele>
        <time>2019-02-19T08:35:12Z</time>
      </trkpt>
      <trkpt lat="45.7962" lon="2.97343">
        <ele>835</ele>
        <time>2019-02-19T08:35:47Z</time>
      </trkpt>
      <trkpt lat="45.79615" lon="2.97336">
        <ele>833</ele>
        <time>2019-02-19T08:35:51Z</time>
      </trkpt>
      <trkpt lat="45.79612" lon="2.97342">
        <ele>834</ele>
        <time>2019-02-19T08:36:03Z</time>
      </trkpt>
      <trkpt lat="45.79619" lon="2.97352">
        <ele>835</ele>
        <time>2019-02-19T08:36:11Z</time>
      </trkpt>
      <trkpt lat="45.79625" lon="2.97356">
        <ele>835</ele>
        <time>2019-02-19T08:36:16Z</time>
      </trkpt>
      <trkpt lat="45.79629" lon="2.97361">
        <ele>835</ele>
        <time>2019-02-19T08:36:20Z</time>
      </trkpt>
      <trkpt lat="45.79634" lon="2.97364">
        <ele>836</ele>
        <time>2019-02-19T08:36:25Z</time>
      </trkpt>
      <trkpt lat="45.7964" lon="2.97365">
        <ele>836</ele>
        <time>2019-02-19T08:36:29Z</time>
      </trkpt>
      <trkpt lat="45.79644" lon="2.9737">
        <ele>836</ele>
        <time>2019-02-19T08:36:33Z</time>
      </trkpt>
      <trkpt lat="45.7965" lon="2.97374">
        <ele>837</ele>
        <time>2019-02-19T08:36:39Z</time>
      </trkpt>
      <trkpt lat="45.79655" lon="2.97382">
        <ele>838</ele>
        <time>2019-02-19T08:36:47Z</time>
      </trkpt>
      <trkpt lat="45.79665" lon="2.97385">
        <ele>839</ele>
        <time>2019-02-19T08:36:57Z</time>
      </trkpt>
      <trkpt lat="45.79671" lon="2.97386">
        <ele>839</ele>
        <time>2019-02-19T08:37:02Z</time>
      </trkpt>
      <trkpt lat="45.79678" lon="2.97384">
        <ele>839</ele>
        <time>2019-02-19T08:37:07Z</time>
      </trkpt>
      <trkpt lat="45.79683" lon="2.97384">
        <ele>838</ele>
        <time>2019-02-19T08:37:11Z</time>
      </trkpt>
      <trkpt lat="45.797" lon="2.9738">
        <ele>836</ele>
        <time>2019-02-19T08:37:23Z</time>
      </trkpt>
      <trkpt lat="45.79715" lon="2.97371">
        <ele>834</ele>
        <time>2019-02-19T08:37:33Z</time>
      </trkpt>
      <trkpt lat="45.79727" lon="2.97369">
        <ele>833</ele>
        <time>2019-02-19T08:37:42Z</time>
      </trkpt>
      <trkpt lat="45.79732" lon="2.97367">
        <ele>833</ele>
        <time>2019-02-19T08:37:46Z</time>
      </trkpt>
      <trkpt lat="45.79739" lon="2.97364">
        <ele>832</ele>
        <time>2019-02-19T08:37:51Z</time>
      </trkpt>
      <trkpt lat="45.79754" lon="2.97353">
        <ele>829</ele>
        <time>2019-02-19T08:38:04Z</time>
      </trkpt>
      <trkpt lat="45.79759" lon="2.97346">
        <ele>829</ele>
        <time>2019-02-19T08:38:08Z</time>
      </trkpt>
      <trkpt lat="45.79761" lon="2.97339">
        <ele>829</ele>
        <time>2019-02-19T08:38:13Z</time>
      </trkpt>
      <trkpt lat="45.79771" lon="2.97331">
        <ele>828</ele>
        <time>2019-02-19T08:38:23Z</time>
      </trkpt>
      <trkpt lat="45.79775" lon="2.97323">
        <ele>828</ele>
        <time>2019-02-19T08:38:28Z</time>
      </trkpt>
      <trkpt lat="45.79783" lon="2.97312">
        <ele>826</ele>
        <time>2019-02-19T08:38:35Z</time>
      </trkpt>
      <trkpt lat="45.79787" lon="2.97306">
        <ele>826</ele>
        <time>2019-02-19T08:38:39Z</time>
      </trkpt>
      <trkpt lat="45.79796" lon="2.97284">
        <ele>824</ele>
        <time>2019-02-19T08:38:53Z</time>
      </trkpt>
      <trkpt lat="45.79799" lon="2.97276">
        <ele>823</ele>
        <time>2019-02-19T08:38:58Z</time>
      </trkpt>
      <trkpt lat="45.79806" lon="2.9725">
        <ele>822</ele>
        <time>2019-02-19T08:39:12Z</time>
      </trkpt>
      <trkpt lat="45.79808" lon="2.97241">
        <ele>821</ele>
        <time>2019-02-19T08:39:17Z</time>
      </trkpt>
      <trkpt lat="45.79809" lon="2.97233">
        <ele>821</ele>
        <time>2019-02-19T08:39:21Z</time>
      </trkpt>
      <trkpt lat="45.79811" lon="2.97225">
        <ele>819</ele>
        <time>2019-02-19T08:39:26Z</time>
      </trkpt>
      <trkpt lat="45.79813" lon="2.97217">
        <ele>819</ele>
        <time>2019-02-19T08:39:31Z</time>
      </trkpt>
      <trkpt lat="45.79811" lon="2.97157">
        <ele>815</ele>
        <time>2019-02-19T08:40:17Z</time>
      </trkpt>
      <trkpt lat="45.79811" lon="2.97147">
        <ele>815</ele>
        <time>2019-02-19T08:40:23Z</time>
      </trkpt>
      <trkpt lat="45.79808" lon="2.97131">
        <ele>813</ele>
        <time>2019-02-19T08:40:32Z</time>
      </trkpt>
      <trkpt lat="45.79808" lon="2.97122">
        <ele>813</ele>
        <time>2019-02-19T08:40:38Z</time>
      </trkpt>
      <trkpt lat="45.79803" lon="2.97108">
        <ele>813</ele>
        <time>2019-02-19T08:40:58Z</time>
      </trkpt>
      <trkpt lat="45.79799" lon="2.97103">
        <ele>813</ele>
        <time>2019-02-19T08:41:02Z</time>
      </trkpt>
      <trkpt lat="45.79795" lon="2.97075">
        <ele>814</ele>
        <time>2019-02-19T08:41:18Z</time>
      </trkpt>
      <trkpt lat="45.79791" lon="2.97069">
        <ele>814</ele>
        <time>2019-02-19T08:41:23Z</time>
      </trkpt>
      <trkpt lat="45.79787" lon="2.97064">
        <ele>814</ele>
        <time>2019-02-19T08:41:27Z</time>
      </trkpt>
      <trkpt lat="45.79783" lon="2.97057">
        <ele>814</ele>
        <time>2019-02-19T08:41:32Z</time>
      </trkpt>
      <trkpt lat="45.79783" lon="2.97049">
        <ele>814</ele>
        <time>2019-02-19T08:41:43Z</time>
      </trkpt>
      <trkpt lat="45.79779" lon="2.97031">
        <ele>816</ele>
        <time>2019-02-19T08:42:01Z</time>
      </trkpt>
      <trkpt lat="45.79777" lon="2.97014">
        <ele>816</ele>
        <time>2019-02-19T08:42:12Z</time>
      </trkpt>
      <trkpt lat="45.79776" lon="2.97019">
        <ele>816</ele>
        <time>2019-02-19T08:42:47Z</time>
      </trkpt>
      <trkpt lat="45.79778" lon="2.97026">
        <ele>816</ele>
        <time>2019-02-19T08:42:51Z</time>
      </trkpt>
      <trkpt lat="45.7978" lon="2.97033">
        <ele>816</ele>
        <time>2019-02-19T08:42:56Z</time>
      </trkpt>
      <trkpt lat="45.79779" lon="2.97041">
        <ele>816</ele>
        <time>2019-02-19T08:43:01Z</time>
      </trkpt>
      <trkpt lat="45.79781" lon="2.97053">
        <ele>815</ele>
        <time>2019-02-19T08:43:08Z</time>
      </trkpt>
      <trkpt lat="45.79785" lon="2.97059">
        <ele>815</ele>
        <time>2019-02-19T08:43:12Z</time>
      </trkpt>
      <trkpt lat="45.79789" lon="2.97066">
        <ele>815</ele>
        <time>2019-02-19T08:43:16Z</time>
      </trkpt>
      <trkpt lat="45.79799" lon="2.97097">
        <ele>814</ele>
        <time>2019-02-19T08:43:36Z</time>
      </trkpt>
      <trkpt lat="45.79802" lon="2.97106">
        <ele>815</ele>
        <time>2019-02-19T08:43:41Z</time>
      </trkpt>
      <trkpt lat="45.7981" lon="2.97123">
        <ele>814</ele>
        <time>2019-02-19T08:43:54Z</time>
      </trkpt>
      <trkpt lat="45.79813" lon="2.97153">
        <ele>815</ele>
        <time>2019-02-19T08:44:22Z</time>
      </trkpt>
      <trkpt lat="45.79817" lon="2.97162">
        <ele>816</ele>
        <time>2019-02-19T08:44:30Z</time>
      </trkpt>
      <trkpt lat="45.79818" lon="2.9717">
        <ele>816</ele>
        <time>2019-02-19T08:44:36Z</time>
      </trkpt>
      <trkpt lat="45.79819" lon="2.97178">
        <ele>817</ele>
        <time>2019-02-19T08:44:41Z</time>
      </trkpt>
      <trkpt lat="45.79819" lon="2.97186">
        <ele>818</ele>
        <time>2019-02-19T08:44:49Z</time>
      </trkpt>
      <trkpt lat="45.79818" lon="2.97195">
        <ele>819</ele>
        <time>2019-02-19T08:44:55Z</time>
      </trkpt>
      <trkpt lat="45.79818" lon="2.97204">
        <ele>819</ele>
        <time>2019-02-19T08:45:00Z</time>
      </trkpt>
      <trkpt lat="45.79818" lon="2.97212">
        <ele>819</ele>
        <time>2019-02-19T08:45:06Z</time>
      </trkpt>
      <trkpt lat="45.79816" lon="2.97232">
        <ele>822</ele>
        <time>2019-02-19T08:45:20Z</time>
      </trkpt>
      <trkpt lat="45.79812" lon="2.97241">
        <ele>823</ele>
        <time>2019-02-19T08:45:29Z</time>
      </trkpt>
      <trkpt lat="45.79811" lon="2.97251">
        <ele>824</ele>
        <time>2019-02-19T08:45:38Z</time>
      </trkpt>
      <trkpt lat="45.79807" lon="2.97257">
        <ele>824</ele>
        <time>2019-02-19T08:45:43Z</time>
      </trkpt>
      <trkpt lat="45.79804" lon="2.97273">
        <ele>825</ele>
        <time>2019-02-19T08:45:54Z</time>
      </trkpt>
      <trkpt lat="45.79799" lon="2.97281">
        <ele>826</ele>
        <time>2019-02-19T08:46:01Z</time>
      </trkpt>
      <trkpt lat="45.79796" lon="2.97287">
        <ele>826</ele>
        <time>2019-02-19T08:46:06Z</time>
      </trkpt>
      <trkpt lat="45.79791" lon="2.97295">
        <ele>827</ele>
        <time>2019-02-19T08:46:13Z</time>
      </trkpt>
      <trkpt lat="45.79786" lon="2.97302">
        <ele>828</ele>
        <time>2019-02-19T08:46:22Z</time>
      </trkpt>
      <trkpt lat="45.79783" lon="2.97312">
        <ele>829</ele>
        <time>2019-02-19T08:46:30Z</time>
      </trkpt>
      <trkpt lat="45.79774" lon="2.97319">
        <ele>830</ele>
        <time>2019-02-19T08:46:41Z</time>
      </trkpt>
      <trkpt lat="45.79764" lon="2.97332">
        <ele>832</ele>
        <time>2019-02-19T08:46:55Z</time>
      </trkpt>
      <trkpt lat="45.79759" lon="2.97338">
        <ele>831</ele>
        <time>2019-02-19T08:46:59Z</time>
      </trkpt>
      <trkpt lat="45.79748" lon="2.97349">
        <ele>833</ele>
        <time>2019-02-19T08:47:11Z</time>
      </trkpt>
      <trkpt lat="45.79737" lon="2.97362">
        <ele>835</ele>
        <time>2019-02-19T08:47:25Z</time>
      </trkpt>
      <trkpt lat="45.79731" lon="2.97362">
        <ele>835</ele>
        <time>2019-02-19T08:47:29Z</time>
      </trkpt>
      <trkpt lat="45.79726" lon="2.97362">
        <ele>836</ele>
        <time>2019-02-19T08:47:35Z</time>
      </trkpt>
      <trkpt lat="45.79714" lon="2.97372">
        <ele>838</ele>
        <time>2019-02-19T08:47:48Z</time>
      </trkpt>
      <trkpt lat="45.79706" lon="2.97374">
        <ele>838</ele>
        <time>2019-02-19T08:47:58Z</time>
      </trkpt>
      <trkpt lat="45.79699" lon="2.97378">
        <ele>839</ele>
        <time>2019-02-19T08:48:06Z</time>
      </trkpt>
      <trkpt lat="45.79683" lon="2.97381">
        <ele>842</ele>
        <time>2019-02-19T08:48:24Z</time>
      </trkpt>
      <trkpt lat="45.79677" lon="2.97383">
        <ele>843</ele>
        <time>2019-02-19T08:48:30Z</time>
      </trkpt>
      <trkpt lat="45.79671" lon="2.97384">
        <ele>844</ele>
        <time>2019-02-19T08:48:35Z</time>
      </trkpt>
      <trkpt lat="45.79665" lon="2.97382">
        <ele>844</ele>
        <time>2019-02-19T08:48:40Z</time>
      </trkpt>
      <trkpt lat="45.79654" lon="2.97378">
        <ele>844</ele>
        <time>2019-02-19T08:48:49Z</time>
      </trkpt>
      <trkpt lat="45.79643" lon="2.97378">
        <ele>844</ele>
        <time>2019-02-19T08:48:57Z</time>
      </trkpt>
      <trkpt lat="45.79636" lon="2.9738">
        <ele>843</ele>
        <time>2019-02-19T08:49:06Z</time>
      </trkpt>
      <trkpt lat="45.79604" lon="2.97365">
        <ele>836</ele>
        <time>2019-02-19T08:49:39Z</time>
      </trkpt>
      <trkpt lat="45.79585" lon="2.97349">
        <ele>832</ele>
        <time>2019-02-19T08:50:00Z</time>
      </trkpt>
      <trkpt lat="45.79559" lon="2.97318">
        <ele>825</ele>
        <time>2019-02-19T08:50:33Z</time>
      </trkpt>
      <trkpt lat="45.79549" lon="2.97303">
        <ele>822</ele>
        <time>2019-02-19T08:50:47Z</time>
      </trkpt>
      <trkpt lat="45.79522" lon="2.97274">
        <ele>815</ele>
        <time>2019-02-19T08:51:18Z</time>
      </trkpt>
      <trkpt lat="45.79498" lon="2.97249">
        <ele>807</ele>
        <time>2019-02-19T08:51:51Z</time>
      </trkpt>
      <trkpt lat="45.79487" lon="2.97241">
        <ele>804</ele>
        <time>2019-02-19T08:52:02Z</time>
      </trkpt>
      <trkpt lat="45.79477" lon="2.97226">
        <ele>801</ele>
        <time>2019-02-19T08:52:20Z</time>
      </trkpt>
      <trkpt lat="45.79456" lon="2.97206">
        <ele>796</ele>
        <time>2019-02-19T08:52:41Z</time>
      </trkpt>
      <trkpt lat="45.79441" lon="2.97177">
        <ele>791</ele>
        <time>2019-02-19T08:53:03Z</time>
      </trkpt>
      <trkpt lat="45.79437" lon="2.9717">
        <ele>792</ele>
        <time>2019-02-19T08:53:07Z</time>
      </trkpt>
      <trkpt lat="45.79423" lon="2.97153">
        <ele>788</ele>
        <time>2019-02-19T08:53:22Z</time>
      </trkpt>
      <trkpt lat="45.79397" lon="2.9711">
        <ele>780</ele>
        <time>2019-02-19T08:54:00Z</time>
      </trkpt>
      <trkpt lat="45.79382" lon="2.97081">
        <ele>776</ele>
        <time>2019-02-19T08:54:33Z</time>
      </trkpt>
      <trkpt lat="45.79372" lon="2.97063">
        <ele>772</ele>
        <time>2019-02-19T08:54:49Z</time>
      </trkpt>
      <trkpt lat="45.79364" lon="2.97031">
        <ele>767</ele>
        <time>2019-02-19T08:55:10Z</time>
      </trkpt>
      <trkpt lat="45.79357" lon="2.97013">
        <ele>763</ele>
        <time>2019-02-19T08:55:28Z</time>
      </trkpt>
      <trkpt lat="45.79354" lon="2.97004">
        <ele>761</ele>
        <time>2019-02-19T08:55:36Z</time>
      </trkpt>
      <trkpt lat="45.7935" lon="2.96997">
        <ele>759</ele>
        <time>2019-02-19T08:55:44Z</time>
      </trkpt>
      <trkpt lat="45.79344" lon="2.96979">
        <ele>754</ele>
        <time>2019-02-19T08:56:00Z</time>
      </trkpt>
      <trkpt lat="45.79343" lon="2.96963">
        <ele>753</ele>
        <time>2019-02-19T08:56:09Z</time>
      </trkpt>
      <trkpt lat="45.79344" lon="2.96955">
        <ele>753</ele>
        <time>2019-02-19T08:56:15Z</time>
      </trkpt>
      <trkpt lat="45.79346" lon="2.96937">
        <ele>752</ele>
        <time>2019-02-19T08:56:29Z</time>
      </trkpt>
      <trkpt lat="45.79347" lon="2.96924">
        <ele>750</ele>
        <time>2019-02-19T08:56:38Z</time>
      </trkpt>
      <trkpt lat="45.7934" lon="2.96909">
        <ele>747</ele>
        <time>2019-02-19T08:56:51Z</time>
      </trkpt>
      <trkpt lat="45.79335" lon="2.96907">
        <ele>745</ele>
        <time>2019-02-19T08:56:56Z</time>
      </trkpt>
      <trkpt lat="45.7933" lon="2.96898">
        <ele>745</ele>
        <time>2019-02-19T08:57:03Z</time>
      </trkpt>
      <trkpt lat="45.79331" lon="2.96867">
        <ele>747</ele>
        <time>2019-02-19T08:59:16Z</time>
      </trkpt>
      <trkpt lat="45.79332" lon="2.96861">
        <ele>747</ele>
        <time>2019-02-19T08:59:20Z</time>
      </trkpt>
      <trkpt lat="45.79332" lon="2.96853">
        <ele>746</ele>
        <time>2019-02-19T08:59:25Z</time>
      </trkpt>
      <trkpt lat="45.79332" lon="2.96839">
        <ele>747</ele>
        <time>2019-02-19T08:59:32Z</time>
      </trkpt>
      <trkpt lat="45.79337" lon="2.96832">
        <ele>746</ele>
        <time>2019-02-19T08:59:37Z</time>
      </trkpt>
      <trkpt lat="45.79341" lon="2.96818">
        <ele>745</ele>
        <time>2019-02-19T08:59:46Z</time>
      </trkpt>
      <trkpt lat="45.79342" lon="2.96809">
        <ele>746</ele>
        <time>2019-02-19T08:59:51Z</time>
      </trkpt>
      <trkpt lat="45.79344" lon="2.96801">
        <ele>746</ele>
        <time>2019-02-19T08:59:55Z</time>
      </trkpt>
      <trkpt lat="45.79348" lon="2.9679">
        <ele>744</ele>
        <time>2019-02-19T09:00:00Z</time>
      </trkpt>
      <trkpt lat="45.7935" lon="2.96782">
        <ele>743</ele>
        <time>2019-02-19T09:00:05Z</time>
      </trkpt>
      <trkpt lat="45.79353" lon="2.96773">
        <ele>743</ele>
        <time>2019-02-19T09:00:10Z</time>
      </trkpt>
      <trkpt lat="45.79357" lon="2.96769">
        <ele>743</ele>
        <time>2019-02-19T09:00:14Z</time>
      </trkpt>
      <trkpt lat="45.7936" lon="2.96762">
        <ele>742</ele>
        <time>2019-02-19T09:00:17Z</time>
      </trkpt>
      <trkpt lat="45.79362" lon="2.96754">
        <ele>742</ele>
        <time>2019-02-19T09:00:21Z</time>
      </trkpt>
      <trkpt lat="45.79364" lon="2.96745">
        <ele>741</ele>
        <time>2019-02-19T09:00:27Z</time>
      </trkpt>
      <trkpt lat="45.79369" lon="2.9674">
        <ele>739</ele>
        <time>2019-02-19T09:00:32Z</time>
      </trkpt>
      <trkpt lat="45.79372" lon="2.96734">
        <ele>739</ele>
        <time>2019-02-19T09:00:36Z</time>
      </trkpt>
      <trkpt lat="45.79381" lon="2.96709">
        <ele>737</ele>
        <time>2019-02-19T09:00:47Z</time>
      </trkpt>
      <trkpt lat="45.79396" lon="2.96675">
        <ele>733</ele>
        <time>2019-02-19T09:01:06Z</time>
      </trkpt>
      <trkpt lat="45.79385" lon="2.9664">
        <ele>729</ele>
        <time>2019-02-19T09:01:33Z</time>
      </trkpt>
      <trkpt lat="45.79378" lon="2.96622">
        <ele>729</ele>
        <time>2019-02-19T09:01:46Z</time>
      </trkpt>
      <trkpt lat="45.79377" lon="2.96599">
        <ele>732</ele>
        <time>2019-02-19T09:02:00Z</time>
      </trkpt>
      <trkpt lat="45.79367" lon="2.96573">
        <ele>731</ele>
        <time>2019-02-19T09:02:21Z</time>
      </trkpt>
      <trkpt lat="45.79347" lon="2.9653">
        <ele>736</ele>
        <time>2019-02-19T09:03:01Z</time>
      </trkpt>
      <trkpt lat="45.79342" lon="2.9651">
        <ele>737</ele>
        <time>2019-02-19T09:03:15Z</time>
      </trkpt>
      <trkpt lat="45.79346" lon="2.9649">
        <ele>739</ele>
        <time>2019-02-19T09:03:31Z</time>
      </trkpt>
      <trkpt lat="45.79341" lon="2.96469">
        <ele>742</ele>
        <time>2019-02-19T09:04:00Z</time>
      </trkpt>
      <trkpt lat="45.79324" lon="2.96449">
        <ele>746</ele>
        <time>2019-02-19T09:04:27Z</time>
      </trkpt>
      <trkpt lat="45.79315" lon="2.96425">
        <ele>749</ele>
        <time>2019-02-19T09:04:59Z</time>
      </trkpt>
      <trkpt lat="45.79311" lon="2.96403">
        <ele>753</ele>
        <time>2019-02-19T09:05:29Z</time>
      </trkpt>
      <trkpt lat="45.79305" lon="2.96382">
        <ele>755</ele>
        <time>2019-02-19T09:05:42Z</time>
      </trkpt>
      <trkpt lat="45.79295" lon="2.96367">
        <ele>757</ele>
        <time>2019-02-19T09:05:57Z</time>
      </trkpt>
      <trkpt lat="45.79293" lon="2.96338">
        <ele>757</ele>
        <time>2019-02-19T09:06:22Z</time>
      </trkpt>
      <trkpt lat="45.79268" lon="2.96299">
        <ele>761</ele>
        <time>2019-02-19T09:07:00Z</time>
      </trkpt>
      <trkpt lat="45.79259" lon="2.96283">
        <ele>762</ele>
        <time>2019-02-19T09:07:14Z</time>
      </trkpt>
      <trkpt lat="45.79236" lon="2.96245">
        <ele>765</ele>
        <time>2019-02-19T09:07:49Z</time>
      </trkpt>
      <trkpt lat="45.79224" lon="2.962">
        <ele>769</ele>
        <time>2019-02-19T09:08:26Z</time>
      </trkpt>
      <trkpt lat="45.79217" lon="2.96149">
        <ele>771</ele>
        <time>2019-02-19T09:09:14Z</time>
      </trkpt>
      <trkpt lat="45.79203" lon="2.96098">
        <ele>774</ele>
        <time>2019-02-19T09:09:59Z</time>
      </trkpt>
      <trkpt lat="45.79203" lon="2.96076">
        <ele>774</ele>
        <time>2019-02-19T09:10:14Z</time>
      </trkpt>
      <trkpt lat="45.79205" lon="2.96055">
        <ele>776</ele>
        <time>2019-02-19T09:10:29Z</time>
      </trkpt>
      <trkpt lat="45.79203" lon="2.96031">
        <ele>777</ele>
        <time>2019-02-19T09:10:45Z</time>
      </trkpt>
      <trkpt lat="45.79207" lon="2.95997">
        <ele>779</ele>
        <time>2019-02-19T09:11:14Z</time>
      </trkpt>
      <trkpt lat="45.79219" lon="2.9598">
        <ele>783</ele>
        <time>2019-02-19T09:11:53Z</time>
      </trkpt>
      <trkpt lat="45.79234" lon="2.95975">
        <ele>788</ele>
        <time>2019-02-19T09:12:23Z</time>
      </trkpt>
      <trkpt lat="45.79253" lon="2.95964">
        <ele>793</ele>
        <time>2019-02-19T09:12:59Z</time>
      </trkpt>
      <trkpt lat="45.79283" lon="2.95943">
        <ele>800</ele>
        <time>2019-02-19T09:13:53Z</time>
      </trkpt>
      <trkpt lat="45.79297" lon="2.95931">
        <ele>805</ele>
        <time>2019-02-19T09:14:39Z</time>
      </trkpt>
      <trkpt lat="45.79319" lon="2.95901">
        <ele>812</ele>
        <time>2019-02-19T09:15:24Z</time>
      </trkpt>
      <trkpt lat="45.79334" lon="2.95881">
        <ele>816</ele>
        <time>2019-02-19T09:15:49Z</time>
      </trkpt>
      <trkpt lat="45.79338" lon="2.95875">
        <ele>816</ele>
        <time>2019-02-19T09:15:54Z</time>
      </trkpt>
      <trkpt lat="45.79342" lon="2.9587">
        <ele>817</ele>
        <time>2019-02-19T09:16:00Z</time>
      </trkpt>
      <trkpt lat="45.7935" lon="2.95866">
        <ele>818</ele>
        <time>2019-02-19T09:16:09Z</time>
      </trkpt>
      <trkpt lat="45.79354" lon="2.95859">
        <ele>819</ele>
        <time>2019-02-19T09:16:14Z</time>
      </trkpt>
      <trkpt lat="45.79361" lon="2.9585">
        <ele>819</ele>
        <time>2019-02-19T09:16:21Z</time>
      </trkpt>
      <trkpt lat="45.79384" lon="2.95831">
        <ele>825</ele>
        <time>2019-02-19T09:16:59Z</time>
      </trkpt>
      <trkpt lat="45.79398" lon="2.95826">
        <ele>831</ele>
        <time>2019-02-19T09:17:51Z</time>
      </trkpt>
      <trkpt lat="45.79385" lon="2.95854">
        <ele>833</ele>
        <time>2019-02-19T09:18:23Z</time>
      </trkpt>
      <trkpt lat="45.79392" lon="2.95873">
        <ele>839</ele>
        <time>2019-02-19T09:19:19Z</time>
      </trkpt>
      <trkpt lat="45.79396" lon="2.95915">
        <ele>850</ele>
        <time>2019-02-19T09:21:06Z</time>
      </trkpt>
      <trkpt lat="45.79397" lon="2.95939">
        <ele>855</ele>
        <time>2019-02-19T09:21:36Z</time>
      </trkpt>
      <trkpt lat="45.79401" lon="2.95963">
        <ele>861</ele>
        <time>2019-02-19T09:22:18Z</time>
      </trkpt>
      <trkpt lat="45.79393" lon="2.9599">
        <ele>864</ele>
        <time>2019-02-19T09:22:39Z</time>
      </trkpt>
      <trkpt lat="45.79401" lon="2.9601">
        <ele>865</ele>
        <time>2019-02-19T09:22:55Z</time>
      </trkpt>
      <trkpt lat="45.79413" lon="2.96027">
        <ele>867</ele>
        <time>2019-02-19T09:23:13Z</time>
      </trkpt>
      <trkpt lat="45.79429" lon="2.96014">
        <ele>871</ele>
        <time>2019-02-19T09:23:36Z</time>
      </trkpt>
      <trkpt lat="45.79438" lon="2.96009">
        <ele>873</ele>
        <time>2019-02-19T09:24:06Z</time>
      </trkpt>
      <trkpt lat="45.79441" lon="2.95999">
        <ele>874</ele>
        <time>2019-02-19T09:25:03Z</time>
      </trkpt>
      <trkpt lat="45.79433" lon="2.95977">
        <ele>876</ele>
        <time>2019-02-19T09:27:16Z</time>
      </trkpt>
      <trkpt lat="45.79432" lon="2.9597">
        <ele>876</ele>
        <time>2019-02-19T09:27:21Z</time>
      </trkpt>
      <trkpt lat="45.79433" lon="2.95961">
        <ele>876</ele>
        <time>2019-02-19T09:27:27Z</time>
      </trkpt>
      <trkpt lat="45.79434" lon="2.95953">
        <ele>876</ele>
        <time>2019-02-19T09:27:33Z</time>
      </trkpt>
      <trkpt lat="45.79438" lon="2.95946">
        <ele>876</ele>
        <time>2019-02-19T09:27:54Z</time>
      </trkpt>
      <trkpt lat="45.79441" lon="2.95939">
        <ele>876</ele>
        <time>2019-02-19T09:28:19Z</time>
      </trkpt>
      <trkpt lat="45.79425" lon="2.959">
        <ele>871</ele>
        <time>2019-02-19T09:28:46Z</time>
      </trkpt>
      <trkpt lat="45.79424" lon="2.95884">
        <ele>866</ele>
        <time>2019-02-19T09:29:05Z</time>
      </trkpt>
      <trkpt lat="45.79436" lon="2.95874">
        <ele>863</ele>
        <time>2019-02-19T09:29:34Z</time>
      </trkpt>
      <trkpt lat="45.79428" lon="2.9587">
        <ele>861</ele>
        <time>2019-02-19T09:29:41Z</time>
      </trkpt>
      <trkpt lat="45.79422" lon="2.95873">
        <ele>859</ele>
        <time>2019-02-19T09:29:49Z</time>
      </trkpt>
      <trkpt lat="45.79414" lon="2.95875">
        <ele>859</ele>
        <time>2019-02-19T09:30:08Z</time>
      </trkpt>
      <trkpt lat="45.79405" lon="2.95873">
        <ele>857</ele>
        <time>2019-02-19T09:30:19Z</time>
      </trkpt>
      <trkpt lat="45.79398" lon="2.95879">
        <ele>855</ele>
        <time>2019-02-19T09:30:27Z</time>
      </trkpt>
      <trkpt lat="45.79382" lon="2.95841">
        <ele>840</ele>
        <time>2019-02-19T09:31:13Z</time>
      </trkpt>
      <trkpt lat="45.79372" lon="2.95841">
        <ele>831</ele>
        <time>2019-02-19T09:32:03Z</time>
      </trkpt>
      <trkpt lat="45.79359" lon="2.95852">
        <ele>828</ele>
        <time>2019-02-19T09:32:17Z</time>
      </trkpt>
      <trkpt lat="45.79349" lon="2.95869">
        <ele>827</ele>
        <time>2019-02-19T09:32:40Z</time>
      </trkpt>
      <trkpt lat="45.79342" lon="2.95889">
        <ele>824</ele>
        <time>2019-02-19T09:32:52Z</time>
      </trkpt>
      <trkpt lat="45.79319" lon="2.95924">
        <ele>816</ele>
        <time>2019-02-19T09:33:44Z</time>
      </trkpt>
      <trkpt lat="45.79314" lon="2.95931">
        <ele>811</ele>
        <time>2019-02-19T09:33:49Z</time>
      </trkpt>
      <trkpt lat="45.79306" lon="2.95937">
        <ele>811</ele>
        <time>2019-02-19T09:33:58Z</time>
      </trkpt>
      <trkpt lat="45.79276" lon="2.95974">
        <ele>799</ele>
        <time>2019-02-19T09:34:33Z</time>
      </trkpt>
      <trkpt lat="45.7925" lon="2.95994">
        <ele>793</ele>
        <time>2019-02-19T09:35:00Z</time>
      </trkpt>
      <trkpt lat="45.79237" lon="2.96002">
        <ele>793</ele>
        <time>2019-02-19T09:35:12Z</time>
      </trkpt>
      <trkpt lat="45.79224" lon="2.96012">
        <ele>795</ele>
        <time>2019-02-19T09:35:25Z</time>
      </trkpt>
      <trkpt lat="45.79196" lon="2.96007">
        <ele>800</ele>
        <time>2019-02-19T09:36:04Z</time>
      </trkpt>
      <trkpt lat="45.79185" lon="2.95986">
        <ele>814</ele>
        <time>2019-02-19T09:37:41Z</time>
      </trkpt>
      <trkpt lat="45.7915" lon="2.95964">
        <ele>823</ele>
        <time>2019-02-19T09:38:36Z</time>
      </trkpt>
      <trkpt lat="45.79117" lon="2.95957">
        <ele>836</ele>
        <time>2019-02-19T09:40:09Z</time>
      </trkpt>
      <trkpt lat="45.79091" lon="2.95941">
        <ele>845</ele>
        <time>2019-02-19T09:41:24Z</time>
      </trkpt>
      <trkpt lat="45.79048" lon="2.95917">
        <ele>851</ele>
        <time>2019-02-19T09:42:26Z</time>
      </trkpt>
      <trkpt lat="45.79034" lon="2.9591">
        <ele>852</ele>
        <time>2019-02-19T09:42:38Z</time>
      </trkpt>
      <trkpt lat="45.79015" lon="2.95904">
        <ele>854</ele>
        <time>2019-02-19T09:42:56Z</time>
      </trkpt>
      <trkpt lat="45.79" lon="2.95914">
        <ele>855</ele>
        <time>2019-02-19T09:43:25Z</time>
      </trkpt>
      <trkpt lat="45.78997" lon="2.95944">
        <ele>860</ele>
        <time>2019-02-19T09:44:15Z</time>
      </trkpt>
      <trkpt lat="45.7899" lon="2.9599">
        <ele>871</ele>
        <time>2019-02-19T09:45:16Z</time>
      </trkpt>
      <trkpt lat="45.78986" lon="2.95999">
        <ele>873</ele>
        <time>2019-02-19T09:45:33Z</time>
      </trkpt>
      <trkpt lat="45.78983" lon="2.96006">
        <ele>874</ele>
        <time>2019-02-19T09:45:43Z</time>
      </trkpt>
      <trkpt lat="45.78981" lon="2.96019">
        <ele>878</ele>
        <time>2019-02-19T09:45:59Z</time>
      </trkpt>
      <trkpt lat="45.78976" lon="2.9603">
        <ele>879</ele>
        <time>2019-02-19T09:46:10Z</time>
      </trkpt>
      <trkpt lat="45.78973" lon="2.96053">
        <ele>882</ele>
        <time>2019-02-19T09:46:33Z</time>
      </trkpt>
      <trkpt lat="45.78971" lon="2.9606">
        <ele>883</ele>
        <time>2019-02-19T09:46:39Z</time>
      </trkpt>
      <trkpt lat="45.78966" lon="2.96069">
        <ele>884</ele>
        <time>2019-02-19T09:46:48Z</time>
      </trkpt>
      <trkpt lat="45.78965" lon="2.96086">
        <ele>885</ele>
        <time>2019-02-19T09:47:00Z</time>
      </trkpt>
      <trkpt lat="45.78963" lon="2.96094">
        <ele>885</ele>
        <time>2019-02-19T09:47:09Z</time>
      </trkpt>
      <trkpt lat="45.78963" lon="2.96103">
        <ele>885</ele>
        <time>2019-02-19T09:47:14Z</time>
      </trkpt>
      <trkpt lat="45.78963" lon="2.96115">
        <ele>885</ele>
        <time>2019-02-19T09:47:23Z</time>
      </trkpt>
      <trkpt lat="45.7897" lon="2.9613">
        <ele>886</ele>
        <time>2019-02-19T09:47:33Z</time>
      </trkpt>
      <trkpt lat="45.78975" lon="2.96136">
        <ele>886</ele>
        <time>2019-02-19T09:47:40Z</time>
      </trkpt>
      <trkpt lat="45.78983" lon="2.96133">
        <ele>887</ele>
        <time>2019-02-19T09:47:49Z</time>
      </trkpt>
      <trkpt lat="45.78989" lon="2.96134">
        <ele>887</ele>
        <time>2019-02-19T09:47:57Z</time>
      </trkpt>
      <trkpt lat="45.78994" lon="2.96132">
        <ele>887</ele>
        <time>2019-02-19T09:49:03Z</time>
      </trkpt>
      <trkpt lat="45.78991" lon="2.96119">
        <ele>888</ele>
        <time>2019-02-19T09:49:40Z</time>
      </trkpt>
      <trkpt lat="45.78987" lon="2.96103">
        <ele>888</ele>
        <time>2019-02-19T09:49:49Z</time>
      </trkpt>
      <trkpt lat="45.78982" lon="2.96085">
        <ele>887</ele>
        <time>2019-02-19T09:49:57Z</time>
      </trkpt>
      <trkpt lat="45.78981" lon="2.96076">
        <ele>887</ele>
        <time>2019-02-19T09:50:02Z</time>
      </trkpt>
      <trkpt lat="45.7898" lon="2.96067">
        <ele>886</ele>
        <time>2019-02-19T09:50:06Z</time>
      </trkpt>
      <trkpt lat="45.7898" lon="2.9605">
        <ele>883</ele>
        <time>2019-02-19T09:50:15Z</time>
      </trkpt>
      <trkpt lat="45.78976" lon="2.96044">
        <ele>884</ele>
        <time>2019-02-19T09:50:19Z</time>
      </trkpt>
      <trkpt lat="45.78973" lon="2.96037">
        <ele>884</ele>
        <time>2019-02-19T09:50:24Z</time>
      </trkpt>
      <trkpt lat="45.78973" lon="2.96028">
        <ele>883</ele>
        <time>2019-02-19T09:50:29Z</time>
      </trkpt>
      <trkpt lat="45.78977" lon="2.96007">
        <ele>879</ele>
        <time>2019-02-19T09:50:42Z</time>
      </trkpt>
      <trkpt lat="45.78979" lon="2.9599">
        <ele>876</ele>
        <time>2019-02-19T09:50:53Z</time>
      </trkpt>
      <trkpt lat="45.78983" lon="2.9598">
        <ele>874</ele>
        <time>2019-02-19T09:51:14Z</time>
      </trkpt>
      <trkpt lat="45.78987" lon="2.95974">
        <ele>873</ele>
        <time>2019-02-19T09:51:20Z</time>
      </trkpt>
      <trkpt lat="45.78991" lon="2.95963">
        <ele>870</ele>
        <time>2019-02-19T09:51:26Z</time>
      </trkpt>
      <trkpt lat="45.78992" lon="2.9595">
        <ele>867</ele>
        <time>2019-02-19T09:51:35Z</time>
      </trkpt>
      <trkpt lat="45.78994" lon="2.95942">
        <ele>866</ele>
        <time>2019-02-19T09:51:39Z</time>
      </trkpt>
      <trkpt lat="45.78995" lon="2.95933">
        <ele>864</ele>
        <time>2019-02-19T09:51:43Z</time>
      </trkpt>
      <trkpt lat="45.79" lon="2.95915">
        <ele>861</ele>
        <time>2019-02-19T09:51:51Z</time>
      </trkpt>
      <trkpt lat="45.79002" lon="2.95908">
        <ele>861</ele>
        <time>2019-02-19T09:51:55Z</time>
      </trkpt>
      <trkpt lat="45.79003" lon="2.95899">
        <ele>859</ele>
        <time>2019-02-19T09:51:59Z</time>
      </trkpt>
      <trkpt lat="45.79013" lon="2.95868">
        <ele>861</ele>
        <time>2019-02-19T09:52:24Z</time>
      </trkpt>
      <trkpt lat="45.79014" lon="2.95823">
        <ele>869</ele>
        <time>2019-02-19T09:53:24Z</time>
      </trkpt>
      <trkpt lat="45.79018" lon="2.95803">
        <ele>873</ele>
        <time>2019-02-19T09:54:00Z</time>
      </trkpt>
      <trkpt lat="45.79024" lon="2.95762">
        <ele>881</ele>
        <time>2019-02-19T09:55:01Z</time>
      </trkpt>
      <trkpt lat="45.79026" lon="2.95737">
        <ele>886</ele>
        <time>2019-02-19T09:55:37Z</time>
      </trkpt>
      <trkpt lat="45.79032" lon="2.95689">
        <ele>894</ele>
        <time>2019-02-19T09:56:26Z</time>
      </trkpt>
      <trkpt lat="45.79029" lon="2.95643">
        <ele>903</ele>
        <time>2019-02-19T09:57:20Z</time>
      </trkpt>
      <trkpt lat="45.79031" lon="2.95622">
        <ele>907</ele>
        <time>2019-02-19T09:57:49Z</time>
      </trkpt>
      <trkpt lat="45.79034" lon="2.95595">
        <ele>913</ele>
        <time>2019-02-19T09:58:25Z</time>
      </trkpt>
      <trkpt lat="45.79037" lon="2.95565">
        <ele>918</ele>
        <time>2019-02-19T09:59:01Z</time>
      </trkpt>
      <trkpt lat="45.79037" lon="2.95555">
        <ele>921</ele>
        <time>2019-02-19T09:59:13Z</time>
      </trkpt>
      <trkpt lat="45.79039" lon="2.95543">
        <ele>923</ele>
        <time>2019-02-19T09:59:28Z</time>
      </trkpt>
      <trkpt lat="45.79042" lon="2.95538">
        <ele>924</ele>
        <time>2019-02-19T09:59:37Z</time>
      </trkpt>
      <trkpt lat="45.79046" lon="2.95522">
        <ele>928</ele>
        <time>2019-02-19T09:59:50Z</time>
      </trkpt>
      <trkpt lat="45.79049" lon="2.95511">
        <ele>928</ele>
        <time>2019-02-19T10:00:03Z</time>
      </trkpt>
      <trkpt lat="45.79053" lon="2.95503">
        <ele>929</ele>
        <time>2019-02-19T10:00:29Z</time>
      </trkpt>
      <trkpt lat="45.7906" lon="2.9549">
        <ele>928</ele>
        <time>2019-02-19T10:00:42Z</time>
      </trkpt>
      <trkpt lat="45.79068" lon="2.95479">
        <ele>926</ele>
        <time>2019-02-19T10:02:08Z</time>
      </trkpt>
      <trkpt lat="45.79074" lon="2.95467">
        <ele>925</ele>
        <time>2019-02-19T10:02:42Z</time>
      </trkpt>
      <trkpt lat="45.79089" lon="2.95429">
        <ele>920</ele>
        <time>2019-02-19T10:03:12Z</time>
      </trkpt>
      <trkpt lat="45.79092" lon="2.95421">
        <ele>920</ele>
        <time>2019-02-19T10:03:16Z</time>
      </trkpt>
      <trkpt lat="45.79102" lon="2.95383">
        <ele>914</ele>
        <time>2019-02-19T10:03:38Z</time>
      </trkpt>
      <trkpt lat="45.7911" lon="2.95372">
        <ele>910</ele>
        <time>2019-02-19T10:03:48Z</time>
      </trkpt>
      <trkpt lat="45.79112" lon="2.95361">
        <ele>908</ele>
        <time>2019-02-19T10:03:57Z</time>
      </trkpt>
      <trkpt lat="45.79118" lon="2.95349">
        <ele>905</ele>
        <time>2019-02-19T10:04:17Z</time>
      </trkpt>
      <trkpt lat="45.79121" lon="2.95331">
        <ele>902</ele>
        <time>2019-02-19T10:04:28Z</time>
      </trkpt>
      <trkpt lat="45.79123" lon="2.95323">
        <ele>901</ele>
        <time>2019-02-19T10:04:33Z</time>
      </trkpt>
      <trkpt lat="45.79122" lon="2.95314">
        <ele>899</ele>
        <time>2019-02-19T10:04:38Z</time>
      </trkpt>
      <trkpt lat="45.79126" lon="2.95309">
        <ele>896</ele>
        <time>2019-02-19T10:04:47Z</time>
      </trkpt>
      <trkpt lat="45.79138" lon="2.95283">
        <ele>888</ele>
        <time>2019-02-19T10:05:16Z</time>
      </trkpt>
      <trkpt lat="45.79139" lon="2.95275">
        <ele>886</ele>
        <time>2019-02-19T10:05:21Z</time>
      </trkpt>
      <trkpt lat="45.79142" lon="2.95267">
        <ele>882</ele>
        <time>2019-02-19T10:05:35Z</time>
      </trkpt>
      <trkpt lat="45.79144" lon="2.95259">
        <ele>880</ele>
        <time>2019-02-19T10:06:05Z</time>
      </trkpt>
      <trkpt lat="45.79148" lon="2.9525">
        <ele>876</ele>
        <time>2019-02-19T10:06:35Z</time>
      </trkpt>
      <trkpt lat="45.79152" lon="2.95226">
        <ele>866</ele>
        <time>2019-02-19T10:07:08Z</time>
      </trkpt>
      <trkpt lat="45.79164" lon="2.95213">
        <ele>858</ele>
        <time>2019-02-19T10:08:04Z</time>
      </trkpt>
      <trkpt lat="45.79179" lon="2.95197">
        <ele>854</ele>
        <time>2019-02-19T10:08:32Z</time>
      </trkpt>
      <trkpt lat="45.79194" lon="2.95169">
        <ele>842</ele>
        <time>2019-02-19T10:09:05Z</time>
      </trkpt>
      <trkpt lat="45.79221" lon="2.95132">
        <ele>827</ele>
        <time>2019-02-19T10:09:58Z</time>
      </trkpt>
      <trkpt lat="45.79228" lon="2.95115">
        <ele>822</ele>
        <time>2019-02-19T10:10:12Z</time>
      </trkpt>
      <trkpt lat="45.79235" lon="2.95087">
        <ele>816</ele>
        <time>2019-02-19T10:10:36Z</time>
      </trkpt>
      <trkpt lat="45.79241" lon="2.9507">
        <ele>810</ele>
        <time>2019-02-19T10:11:09Z</time>
      </trkpt>
      <trkpt lat="45.79247" lon="2.95029">
        <ele>801</ele>
        <time>2019-02-19T10:11:43Z</time>
      </trkpt>
      <trkpt lat="45.79255" lon="2.95012">
        <ele>795</ele>
        <time>2019-02-19T10:12:03Z</time>
      </trkpt>
      <trkpt lat="45.79263" lon="2.9499">
        <ele>791</ele>
        <time>2019-02-19T10:13:27Z</time>
      </trkpt>
      <trkpt lat="45.79273" lon="2.94954">
        <ele>781</ele>
        <time>2019-02-19T10:13:58Z</time>
      </trkpt>
      <trkpt lat="45.79282" lon="2.94939">
        <ele>775</ele>
        <time>2019-02-19T10:14:13Z</time>
      </trkpt>
      <trkpt lat="45.79292" lon="2.94885">
        <ele>762</ele>
        <time>2019-02-19T10:15:06Z</time>
      </trkpt>
      <trkpt lat="45.79297" lon="2.94835">
        <ele>750</ele>
        <time>2019-02-19T10:15:45Z</time>
      </trkpt>
      <trkpt lat="45.79295" lon="2.94812">
        <ele>747</ele>
        <time>2019-02-19T10:16:10Z</time>
      </trkpt>
      <trkpt lat="45.79312" lon="2.94786">
        <ele>739</ele>
        <time>2019-02-19T10:16:55Z</time>
      </trkpt>
      <trkpt lat="45.79323" lon="2.94749">
        <ele>733</ele>
        <time>2019-02-19T10:17:28Z</time>
      </trkpt>
      <trkpt lat="45.79326" lon="2.94728">
        <ele>730</ele>
        <time>2019-02-19T10:17:40Z</time>
      </trkpt>
      <trkpt lat="45.79332" lon="2.94702">
        <ele>729</ele>
        <time>2019-02-19T10:18:12Z</time>
      </trkpt>
      <trkpt lat="45.79309" lon="2.94664">
        <ele>729</ele>
        <time>2019-02-19T10:18:43Z</time>
      </trkpt>
      <trkpt lat="45.79284" lon="2.94609">
        <ele>731</ele>
        <time>2019-02-19T10:19:20Z</time>
      </trkpt>
      <trkpt lat="45.79275" lon="2.94592">
        <ele>731</ele>
        <time>2019-02-19T10:19:35Z</time>
      </trkpt>
      <trkpt lat="45.79265" lon="2.9457">
        <ele>733</ele>
        <time>2019-02-19T10:22:46Z</time>
      </trkpt>
      <trkpt lat="45.79256" lon="2.94552">
        <ele>733</ele>
        <time>2019-02-19T10:22:58Z</time>
      </trkpt>
      <trkpt lat="45.79264" lon="2.94561">
        <ele>734</ele>
        <time>2019-02-19T10:24:18Z</time>
      </trkpt>
      <trkpt lat="45.79269" lon="2.94585">
        <ele>734</ele>
        <time>2019-02-19T10:24:32Z</time>
      </trkpt>
      <trkpt lat="45.79297" lon="2.94624">
        <ele>734</ele>
        <time>2019-02-19T10:25:14Z</time>
      </trkpt>
      <trkpt lat="45.79301" lon="2.94601">
        <ele>739</ele>
        <time>2019-02-19T10:26:20Z</time>
      </trkpt>
      <trkpt lat="45.79319" lon="2.94566">
        <ele>752</ele>
        <time>2019-02-19T10:27:57Z</time>
      </trkpt>
      <trkpt lat="45.79343" lon="2.94538">
        <ele>768</ele>
        <time>2019-02-19T10:29:42Z</time>
      </trkpt>
      <trkpt lat="45.79365" lon="2.94511">
        <ele>787</ele>
        <time>2019-02-19T10:31:42Z</time>
      </trkpt>
      <trkpt lat="45.79391" lon="2.94487">
        <ele>804</ele>
        <time>2019-02-19T10:33:42Z</time>
      </trkpt>
      <trkpt lat="45.79401" lon="2.94442">
        <ele>825</ele>
        <time>2019-02-19T10:36:15Z</time>
      </trkpt>
    </trkseg>
  </trk>
  <rte>
    <name><![CDATA[4 avr. 2019 à 23:11:12]]></name>
    <cmt><![CDATA[4 avr. 2019 à 23:11:12]]></cmt>
    <desc><![CDATA[{DC1}Heure de fin	: 
Durée totale	: 0h00:00
Moyenne globale	: -
Pente moyenne	: 0.00 %
Aire incluse	: 7.4932 ha
Détails par segments
distance  | durée    | vit.moy. | vit.max. | déniv. + | déniv -
   km     | hh:mn:ss |   km/h   |   km/h   |    m     |    m
     0.81 | 00:00:00 |      0.0 |      0.0 |        0 |        0{DC2}]]></desc>
      <rtept lat="45.60077" lon="6.18221">
        <ele>1608.6</ele>
      </rtept>
      <rtept lat="45.59468" lon="6.1822">
        <ele>1760.9</ele>
      </rtept>
      <rtept lat="45.59468" lon="6.1822">
        <ele>1760.9</ele>
      </rtept>
    </rte>
  <rte>
    <name><![CDATA[10 févr. 2019 à 15:16:12]]></name>
    <cmt><![CDATA[10 févr. 2019 à 15:16:12]]></cmt>
    <desc><![CDATA[{DC1}Heure de fin	: 00:09:21
Durée totale	: -17690439h43:48
Moyenne globale	: -
Pente moyenne	: 7.00 %
Aire incluse	: 221.0936 ha
Détails par segments
distance  | durée    | vit.moy. | vit.max. | déniv. + | déniv -
   km     | hh:mn:ss |   km/h   |   km/h   |    m     |    m
     7.48 | 00:00:00 |      0.0 |      0.0 |        0 |        0{DC2}]]></desc>
      <rtept lat="45.55203" lon="5.93805">
        <ele>376</ele>
      </rtept>
      <rtept lat="45.55177" lon="5.93873">
        <ele>369</ele>
      </rtept>
      <rtept lat="45.55176" lon="5.93942">
        <ele>367</ele>
      </rtept>
      <rtept lat="45.55105" lon="5.93942">
        <ele>367</ele>
      </rtept>
      <rtept lat="45.54993" lon="5.93908">
        <ele>371</ele>
      </rtept>
      <rtept lat="45.54929" lon="5.94099">
        <ele>370</ele>
      </rtept>
      <rtept lat="45.54908" lon="5.94204">
        <ele>367</ele>
      </rtept>
      <rtept lat="45.54991" lon="5.94287">
        <ele>365</ele>
      </rtept>
      <rtept lat="45.5506" lon="5.94384">
        <ele>361</ele>
      </rtept>
      <rtept lat="45.55147" lon="5.94384">
        <ele>357</ele>
      </rtept>
      <rtept lat="45.55129" lon="5.94607">
        <ele>358</ele>
      </rtept>
      <rtept lat="45.55029" lon="5.94809">
        <ele>355</ele>
      </rtept>
      <rtept lat="45.54884" lon="5.94886">
        <ele>346</ele>
      </rtept>
      <rtept lat="45.5477" lon="5.94931">
        <ele>342</ele>
      </rtept>
      <rtept lat="45.5468" lon="5.95004">
        <ele>339</ele>
      </rtept>
      <rtept lat="45.54596" lon="5.95133">
        <ele>340</ele>
      </rtept>
      <rtept lat="45.54446" lon="5.95195">
        <ele>343</ele>
      </rtept>
      <rtept lat="45.543" lon="5.95262">
        <ele>344</ele>
      </rtept>
      <rtept lat="45.54156" lon="5.95212">
        <ele>337</ele>
      </rtept>
      <rtept lat="45.54041" lon="5.95204">
        <ele>338</ele>
      </rtept>
      <rtept lat="45.53917" lon="5.95141">
        <ele>343</ele>
      </rtept>
      <rtept lat="45.53844" lon="5.95135">
        <ele>347</ele>
      </rtept>
      <rtept lat="45.53765" lon="5.9503">
        <ele>349</ele>
      </rtept>
      <rtept lat="45.5381" lon="5.94993">
        <ele>352</ele>
      </rtept>
      <rtept lat="45.53781" lon="5.94901">
        <ele>358</ele>
      </rtept>
      <rtept lat="45.53711" lon="5.94845">
        <ele>365</ele>
      </rtept>
      <rtept lat="45.53702" lon="5.94764">
        <ele>369</ele>
      </rtept>
      <rtept lat="45.53817" lon="5.94807">
        <ele>376</ele>
      </rtept>
      <rtept lat="45.53865" lon="5.94633">
        <ele>389</ele>
      </rtept>
      <rtept lat="45.53778" lon="5.94491">
        <ele>408</ele>
      </rtept>
      <rtept lat="45.53757" lon="5.94371">
        <ele>425</ele>
      </rtept>
      <rtept lat="45.53775" lon="5.94279">
        <ele>434</ele>
      </rtept>
      <rtept lat="45.53726" lon="5.94227">
        <ele>442</ele>
      </rtept>
      <rtept lat="45.53572" lon="5.94146">
        <ele>468</ele>
      </rtept>
      <rtept lat="45.53664" lon="5.94039">
        <ele>483</ele>
      </rtept>
      <rtept lat="45.53532" lon="5.93983">
        <ele>505</ele>
      </rtept>
      <rtept lat="45.53416" lon="5.93985">
        <ele>516</ele>
      </rtept>
      <rtept lat="45.5355" lon="5.93869">
        <ele>532</ele>
      </rtept>
      <rtept lat="45.5359" lon="5.93845">
        <ele>537</ele>
      </rtept>
      <rtept lat="45.5355" lon="5.93802">
        <ele>544</ele>
      </rtept>
      <rtept lat="45.53724" lon="5.93554">
        <ele>587</ele>
      </rtept>
      <rtept lat="45.53691" lon="5.93339">
        <ele>592</ele>
      </rtept>
      <rtept lat="45.5376" lon="5.93178">
        <ele>575</ele>
      </rtept>
      <rtept lat="45.53843" lon="5.93069">
        <ele>555</ele>
      </rtept>
      <rtept lat="45.53939" lon="5.93157">
        <ele>541</ele>
      </rtept>
      <rtept lat="45.54068" lon="5.93234">
        <ele>522</ele>
      </rtept>
      <rtept lat="45.54219" lon="5.93247">
        <ele>514</ele>
      </rtept>
      <rtept lat="45.54355" lon="5.93232">
        <ele>512</ele>
      </rtept>
      <rtept lat="45.54489" lon="5.9326">
        <ele>508</ele>
      </rtept>
      <rtept lat="45.54636" lon="5.93249">
        <ele>510</ele>
      </rtept>
      <rtept lat="45.54758" lon="5.93249">
        <ele>510</ele>
      </rtept>
      <rtept lat="45.54818" lon="5.93298">
        <ele>507</ele>
      </rtept>
      <rtept lat="45.54796" lon="5.93418">
        <ele>496</ele>
      </rtept>
      <rtept lat="45.5491" lon="5.93433">
        <ele>483</ele>
      </rtept>
      <rtept lat="45.55126" lon="5.9341">
        <ele>463</ele>
      </rtept>
      <rtept lat="45.55256" lon="5.93453">
        <ele>444</ele>
      </rtept>
      <rtept lat="45.55329" lon="5.93558">
        <ele>430</ele>
      </rtept>
      <rtept lat="45.55222" lon="5.93642">
        <ele>415</ele>
      </rtept>
      <rtept lat="45.55195" lon="5.93811">
        <ele>375</ele>
      </rtept>
    </rte>
  <rte>
    <name><![CDATA[10 févr. 2019 à 15:15:48]]></name>
    <cmt><![CDATA[10 févr. 2019 à 15:15:48]]></cmt>
    <desc><![CDATA[{DC1}Heure de fin	: 00:09:21
Durée totale	: -17690439h44:12
Moyenne globale	: -
Pente moyenne	: nan %
Aire incluse	: 0.0000 ha
Détails par segments
distance  | durée    | vit.moy. | vit.max. | déniv. + | déniv -
   km     | hh:mn:ss |   km/h   |   km/h   |    m     |    m
     0.00 | 00:00:00 |      0.0 |      0.0 |        0 |        0{DC2}]]></desc>
      <rtept lat="45.5175" lon="5.93483">
        <ele>732.3</ele>
      </rtept>
    </rte>
  <rte>
    <name><![CDATA[10 févr. 2019 à 15:06:08]]></name>
    <cmt><![CDATA[10 févr. 2019 à 15:06:08]]></cmt>
    <desc><![CDATA[{DC1}Heure de fin	: 
Durée totale	: 0h00:00
Moyenne globale	: -
Pente moyenne	: 8.03 %
Aire incluse	: 204.0794 ha
Détails par segments
distance  | durée    | vit.moy. | vit.max. | déniv. + | déniv -
   km     | hh:mn:ss |   km/h   |   km/h   |    m     |    m
    12.88 | 00:00:00 |      0.0 |      0.0 |        0 |        0{DC2}]]></desc>
      <rtept lat="45.5509" lon="5.9394">
        <ele>368</ele>
      </rtept>
      <rtept lat="45.55217" lon="5.93791">
        <ele>377</ele>
      </rtept>
    </rte>
  <rte>
    <name><![CDATA[10 févr. 2019 à 14:22:06]]></name>
    <cmt><![CDATA[10 févr. 2019 à 14:22:06]]></cmt>
    <desc><![CDATA[{DC1}Heure de fin	: 00:09:21
Durée totale	: -17690438h37:54
Moyenne globale	: -
Pente moyenne	: 5.62 %
Aire incluse	: 5.7967 ha
Détails par segments
distance  | durée    | vit.moy. | vit.max. | déniv. + | déniv -
   km     | hh:mn:ss |   km/h   |   km/h   |    m     |    m
     3.30 | 00:00:00 |      0.0 |      0.0 |        0 |        0{DC2}]]></desc>
      <rtept lat="45.55169" lon="5.93089">
        <ele>415</ele>
      </rtept>
      <rtept lat="45.5518" lon="5.93905">
        <ele>366</ele>
      </rtept>
    </rte>
  <rte>
    <name><![CDATA[10 févr. 2019 à 09:50:45]]></name>
    <cmt><![CDATA[10 févr. 2019 à 09:50:45]]></cmt>
    <desc><![CDATA[{DC1}Heure de fin	: 00:09:21
Durée totale	: -17690433h09:14
Moyenne globale	: -
Pente moyenne	: 0.00 %
Aire incluse	: 50.7119 ha
Détails par segments
distance  | durée    | vit.moy. | vit.max. | déniv. + | déniv -
   km     | hh:mn:ss |   km/h   |   km/h   |    m     |    m
     4.33 | 00:00:00 |      0.0 |      0.0 |        0 |        0{DC2}]]></desc>
      <rtept lat="45.5503" lon="5.93918">
        <ele>373.6</ele>
      </rtept>
      <rtept lat="45.55191" lon="5.93893">
        <ele>366.7</ele>
      </rtept>
    </rte>
  <rte>
    <name><![CDATA[10 févr. 2019 à 09:07:08]]></name>
    <cmt><![CDATA[10 févr. 2019 à 09:07:08]]></cmt>
    <desc><![CDATA[{DC1}Heure de fin	: 00:09:21
Durée totale	: -17690433h52:52
Moyenne globale	: -
Pente moyenne	: nan %
Aire incluse	: 0.0000 ha
Détails par segments
distance  | durée    | vit.moy. | vit.max. | déniv. + | déniv -
   km     | hh:mn:ss |   km/h   |   km/h   |    m     |    m
     0.00 | 00:00:00 |      0.0 |      0.0 |        0 |        0{DC2}]]></desc>
      <rtept lat="45.55102" lon="5.93919">
        <ele>370.1</ele>
      </rtept>
    </rte>
  <rte>
    <name><![CDATA[10 févr. 2019 à 09:02:25]]></name>
    <cmt><![CDATA[10 févr. 2019 à 09:02:25]]></cmt>
    <desc><![CDATA[{DC1}Heure de fin	: 00:09:21
Durée totale	: -17690433h57:35
Moyenne globale	: -
Pente moyenne	: nan %
Aire incluse	: 0.0000 ha
Détails par segments
distance  | durée    | vit.moy. | vit.max. | déniv. + | déniv -
   km     | hh:mn:ss |   km/h   |   km/h   |    m     |    m
     0.00 | 00:00:00 |      0.0 |      0.0 |        0 |        0{DC2}]]></desc>
      <rtept lat="45.55207" lon="5.93813">
        <ele>375.2</ele>
      </rtept>
    </rte>
  <rte>
    <name><![CDATA[10 févr. 2019 à 09:00:27]]></name>
    <cmt><![CDATA[10 févr. 2019 à 09:00:27]]></cmt>
    <desc><![CDATA[{DC1}Heure de fin	: 00:09:21
Durée totale	: -17690433h59:32
Moyenne globale	: -
Pente moyenne	: nan %
Aire incluse	: 0.0000 ha
Détails par segments
distance  | durée    | vit.moy. | vit.max. | déniv. + | déniv -
   km     | hh:mn:ss |   km/h   |   km/h   |    m     |    m
     0.00 | 00:00:00 |      0.0 |      0.0 |        0 |        0{DC2}]]></desc>
      <rtept lat="45.55244" lon="5.93858">
        <ele>366.6</ele>
      </rtept>
    </rte>
</gpx>